This is the latest recevied weather packets stored in our database for station/object WX7FGZ-3. If no packets are shown the sender has not sent any weather packets the latest 10 day(s).
| Time | Temp. | Humidity | Pressure | Rain* | Wind** | Luminosity | Snow |
|---|---|---|---|---|---|---|---|
| 1777863216 | 13.33° C | 46% | 1007.5 hPa | 0 mm | - | - | - |
| 1777862615 | 13.33° C | 45% | 1007.5 hPa | 0 mm | - | - | - |
| 1777862014 | 13.33° C | 44% | 1007.6 hPa | 0 mm | - | - | - |
| 1777861714 | 13.33° C | 44% | 1007.6 hPa | 0 mm | - | - | - |
| 1777861414 | 13.89° C | 43% | 1007.6 hPa | 0 mm | - | - | - |
| 1777861115 | 13.89° C | 42% | 1007.5 hPa | 0 mm | - | - | - |
| 1777860813 | 13.89° C | 42% | 1007.5 hPa | 0 mm | - | - | - |
| 1777860513 | 13.89° C | 42% | 1007.7 hPa | 0 mm | - | - | - |
| 1777860213 | 13.89° C | 42% | 1008.3 hPa | 0 mm | - | - | - |
| 1777859913 | 14.44° C | 41% | 1008.4 hPa | 0 mm | - | - | - |
| 1777859612 | 14.44° C | 41% | 1008.4 hPa | 0 mm | - | - | - |
| 1777859011 | 15° C | 38% | 1008.1 hPa | 0 mm | - | - | - |
| 1777858712 | 15° C | 38% | 1008.2 hPa | 0 mm | - | - | - |
| 1777858411 | 16.67° C | 33% | 1007.8 hPa | 0 mm | - | - | - |
| 1777857810 | 16.11° C | 30% | 1007.6 hPa | 0 mm | - | - | - |
| 1777857510 | 16.67° C | 29% | 1007.4 hPa | 0 mm | - | - | - |
| 1777856609 | 16.67° C | 30% | 1007.2 hPa | 0 mm | - | - | - |
| 1777855108 | 17.78° C | 28% | 1007.6 hPa | 0 mm | - | - | - |
| 1777853307 | 18.89° C | 25% | 1007.6 hPa | 0 mm | - | - | - |
| 1777853006 | 18.89° C | 25% | 1007.7 hPa | 0 mm | - | - | - |
| 1777852706 | 19.44° C | 25% | 1007.6 hPa | 0 mm | - | - | - |
| 1777852405 | 19.44° C | 23% | 1007.7 hPa | 0 mm | - | - | - |
| 1777852105 | 20° C | 22% | 1007.6 hPa | 0 mm | - | - | - |
| 1777851805 | 19.44° C | 22% | 1007.5 hPa | 0 mm | - | - | - |
| 1777851505 | 19.44° C | 21% | 1007.7 hPa | 0 mm | - | - | - |
* Rain latest hour (hover to see other rain measurements)
** Current wind speed in m/s (hover to see current wind gust speed)